sensor_id;sensor_type;location;lat;lon;timestamp;P1;durP1;ratioP1;P2;durP2;ratioP2
13432;SDS011;6789;47.678;9.158;2023-04-29T00:09:03;4.13;;;3.70;;
13432;SDS011;6789;47.678;9.158;2023-04-29T00:14:50;6.65;;;3.60;;
13432;SDS011;6789;47.678;9.158;2023-04-29T00:20:02;4.32;;;3.72;;
13432;SDS011;6789;47.678;9.158;2023-04-29T00:25:48;7.28;;;4.70;;
13432;SDS011;6789;47.678;9.158;2023-04-29T00:31:15;6.22;;;5.10;;
13432;SDS011;6789;47.678;9.158;2023-04-29T00:41:29;6.20;;;4.95;;
13432;SDS011;6789;47.678;9.158;2023-04-29T00:46:22;6.18;;;4.93;;
13432;SDS011;6789;47.678;9.158;2023-04-29T00:51:14;7.47;;;5.30;;
13432;SDS011;6789;47.678;9.158;2023-04-29T00:56:08;8.85;;;5.22;;
13432;SDS011;6789;47.678;9.158;2023-04-29T01:01:01;7.72;;;5.50;;
13432;SDS011;6789;47.678;9.158;2023-04-29T01:17:05;8.57;;;6.28;;
13432;SDS011;6789;47.678;9.158;2023-04-29T01:22:05;7.80;;;6.43;;
13432;SDS011;6789;47.678;9.158;2023-04-29T01:26:58;8.13;;;5.82;;
13432;SDS011;6789;47.678;9.158;2023-04-29T01:32:17;7.07;;;5.60;;
13432;SDS011;6789;47.678;9.158;2023-04-29T01:37:24;7.90;;;5.90;;
13432;SDS011;6789;47.678;9.158;2023-04-29T01:48:22;8.98;;;6.70;;
13432;SDS011;6789;47.678;9.158;2023-04-29T01:53:32;10.95;;;7.13;;
13432;SDS011;6789;47.678;9.158;2023-04-29T01:58:39;10.73;;;7.32;;
13432;SDS011;6789;47.678;9.158;2023-04-29T02:03:45;9.02;;;6.93;;
13432;SDS011;6789;47.678;9.158;2023-04-29T02:08:37;8.10;;;6.93;;
13432;SDS011;6789;47.678;9.158;2023-04-29T02:13:29;8.80;;;6.97;;
13432;SDS011;6789;47.678;9.158;2023-04-29T02:18:20;8.48;;;7.07;;
13432;SDS011;6789;47.678;9.158;2023-04-29T02:23:12;8.68;;;6.70;;
13432;SDS011;6789;47.678;9.158;2023-04-29T02:28:04;10.07;;;7.22;;
13432;SDS011;6789;47.678;9.158;2023-04-29T02:32:55;6.93;;;5.72;;
13432;SDS011;6789;47.678;9.158;2023-04-29T02:37:47;6.50;;;5.80;;
13432;SDS011;6789;47.678;9.158;2023-04-29T02:42:39;6.47;;;5.72;;
13432;SDS011;6789;47.678;9.158;2023-04-29T02:47:31;10.13;;;6.72;;
13432;SDS011;6789;47.678;9.158;2023-04-29T02:52:23;8.38;;;6.80;;
13432;SDS011;6789;47.678;9.158;2023-04-29T02:57:15;7.18;;;6.30;;
13432;SDS011;6789;47.678;9.158;2023-04-29T03:02:07;8.73;;;6.32;;
13432;SDS011;6789;47.678;9.158;2023-04-29T03:06:58;9.68;;;7.03;;
13432;SDS011;6789;47.678;9.158;2023-04-29T03:11:50;9.30;;;7.25;;
13432;SDS011;6789;47.678;9.158;2023-04-29T03:16:44;9.63;;;6.80;;
13432;SDS011;6789;47.678;9.158;2023-04-29T03:21:36;8.73;;;6.65;;
13432;SDS011;6789;47.678;9.158;2023-04-29T03:26:27;9.13;;;6.10;;
13432;SDS011;6789;47.678;9.158;2023-04-29T03:31:19;7.47;;;6.53;;
13432;SDS011;6789;47.678;9.158;2023-04-29T03:36:13;8.40;;;6.25;;
13432;SDS011;6789;47.678;9.158;2023-04-29T03:41:05;7.20;;;5.45;;
13432;SDS011;6789;47.678;9.158;2023-04-29T03:45:59;7.63;;;5.47;;
13432;SDS011;6789;47.678;9.158;2023-04-29T03:56:01;10.93;;;7.95;;
13432;SDS011;6789;47.678;9.158;2023-04-29T04:00:53;10.50;;;6.80;;
13432;SDS011;6789;47.678;9.158;2023-04-29T04:05:46;8.63;;;7.22;;
13432;SDS011;6789;47.678;9.158;2023-04-29T04:10:38;8.32;;;6.90;;
13432;SDS011;6789;47.678;9.158;2023-04-29T04:15:30;7.95;;;6.45;;
13432;SDS011;6789;47.678;9.158;2023-04-29T04:20:22;8.13;;;6.87;;
13432;SDS011;6789;47.678;9.158;2023-04-29T04:25:17;7.82;;;6.85;;
13432;SDS011;6789;47.678;9.158;2023-04-29T04:30:23;9.47;;;7.03;;
13432;SDS011;6789;47.678;9.158;2023-04-29T04:35:15;11.05;;;7.13;;
13432;SDS011;6789;47.678;9.158;2023-04-29T04:40:07;8.53;;;6.20;;
13432;SDS011;6789;47.678;9.158;2023-04-29T04:45:01;8.47;;;6.60;;
13432;SDS011;6789;47.678;9.158;2023-04-29T04:49:53;9.03;;;6.30;;
13432;SDS011;6789;47.678;9.158;2023-04-29T04:54:45;9.63;;;6.80;;
13432;SDS011;6789;47.678;9.158;2023-04-29T04:59:38;9.70;;;7.35;;
13432;SDS011;6789;47.678;9.158;2023-04-29T05:04:32;8.50;;;7.50;;
13432;SDS011;6789;47.678;9.158;2023-04-29T05:09:23;12.35;;;8.15;;
13432;SDS011;6789;47.678;9.158;2023-04-29T05:14:16;11.52;;;8.40;;
13432;SDS011;6789;47.678;9.158;2023-04-29T05:19:08;9.82;;;7.82;;
13432;SDS011;6789;47.678;9.158;2023-04-29T05:24:00;6.88;;;6.15;;
13432;SDS011;6789;47.678;9.158;2023-04-29T05:28:52;6.13;;;4.90;;
13432;SDS011;6789;47.678;9.158;2023-04-29T05:33:45;5.10;;;4.20;;
13432;SDS011;6789;47.678;9.158;2023-04-29T05:38:37;4.22;;;3.83;;
13432;SDS011;6789;47.678;9.158;2023-04-29T05:43:28;4.63;;;4.00;;
13432;SDS011;6789;47.678;9.158;2023-04-29T05:48:20;3.85;;;3.55;;
13432;SDS011;6789;47.678;9.158;2023-04-29T05:53:12;4.68;;;4.10;;
13432;SDS011;6789;47.678;9.158;2023-04-29T05:58:04;5.97;;;4.50;;
13432;SDS011;6789;47.678;9.158;2023-04-29T06:02:55;4.82;;;4.43;;
13432;SDS011;6789;47.678;9.158;2023-04-29T06:07:49;4.22;;;3.83;;
13432;SDS011;6789;47.678;9.158;2023-04-29T06:12:42;4.30;;;3.88;;
13432;SDS011;6789;47.678;9.158;2023-04-29T06:17:33;6.38;;;4.70;;
13432;SDS011;6789;47.678;9.158;2023-04-29T06:22:34;4.35;;;3.60;;
13432;SDS011;6789;47.678;9.158;2023-04-29T06:27:27;3.90;;;3.60;;
13432;SDS011;6789;47.678;9.158;2023-04-29T06:32:19;4.07;;;3.50;;
13432;SDS011;6789;47.678;9.158;2023-04-29T06:37:13;3.80;;;3.50;;
13432;SDS011;6789;47.678;9.158;2023-04-29T06:42:19;3.28;;;2.97;;
13432;SDS011;6789;47.678;9.158;2023-04-29T06:47:12;3.28;;;2.97;;
13432;SDS011;6789;47.678;9.158;2023-04-29T06:52:19;3.22;;;2.83;;
13432;SDS011;6789;47.678;9.158;2023-04-29T06:57:11;3.45;;;3.00;;
13432;SDS011;6789;47.678;9.158;2023-04-29T07:02:06;2.75;;;2.45;;
13432;SDS011;6789;47.678;9.158;2023-04-29T07:06:58;4.13;;;3.47;;
13432;SDS011;6789;47.678;9.158;2023-04-29T07:11:55;3.78;;;2.92;;
13432;SDS011;6789;47.678;9.158;2023-04-29T07:16:55;2.63;;;2.42;;
13432;SDS011;6789;47.678;9.158;2023-04-29T07:21:56;2.83;;;2.63;;
13432;SDS011;6789;47.678;9.158;2023-04-29T07:27:02;2.85;;;2.40;;
13432;SDS011;6789;47.678;9.158;2023-04-29T07:31:55;3.17;;;2.40;;
13432;SDS011;6789;47.678;9.158;2023-04-29T07:37:01;3.10;;;2.28;;
13432;SDS011;6789;47.678;9.158;2023-04-29T07:42:07;3.25;;;2.10;;
13432;SDS011;6789;47.678;9.158;2023-04-29T07:47:13;1.70;;;1.60;;
13432;SDS011;6789;47.678;9.158;2023-04-29T07:52:19;1.38;;;1.20;;
13432;SDS011;6789;47.678;9.158;2023-04-29T07:57:19;1.98;;;1.27;;
13432;SDS011;6789;47.678;9.158;2023-04-29T08:02:25;0.93;;;0.88;;
13432;SDS011;6789;47.678;9.158;2023-04-29T08:07:31;2.00;;;1.10;;
13432;SDS011;6789;47.678;9.158;2023-04-29T08:12:37;2.67;;;1.40;;
13432;SDS011;6789;47.678;9.158;2023-04-29T08:17:29;4.75;;;1.70;;
13432;SDS011;6789;47.678;9.158;2023-04-29T08:22:21;5.07;;;2.72;;
13432;SDS011;6789;47.678;9.158;2023-04-29T08:27:13;3.55;;;3.00;;
13432;SDS011;6789;47.678;9.158;2023-04-29T08:32:19;3.80;;;2.88;;
13432;SDS011;6789;47.678;9.158;2023-04-29T08:37:27;3.30;;;2.63;;
13432;SDS011;6789;47.678;9.158;2023-04-29T08:42:20;3.42;;;2.28;;
13432;SDS011;6789;47.678;9.158;2023-04-29T08:47:28;3.15;;;2.40;;
13432;SDS011;6789;47.678;9.158;2023-04-29T08:52:22;3.42;;;1.92;;
13432;SDS011;6789;47.678;9.158;2023-04-29T08:57:33;2.67;;;2.25;;
13432;SDS011;6789;47.678;9.158;2023-04-29T09:02:48;4.47;;;2.30;;
13432;SDS011;6789;47.678;9.158;2023-04-29T09:07:58;2.13;;;1.92;;
13432;SDS011;6789;47.678;9.158;2023-04-29T09:12:56;1.98;;;1.10;;
13432;SDS011;6789;47.678;9.158;2023-04-29T09:17:48;1.92;;;1.00;;
13432;SDS011;6789;47.678;9.158;2023-04-29T09:22:50;1.45;;;0.88;;
13432;SDS011;6789;47.678;9.158;2023-04-29T09:27:48;1.65;;;0.80;;
13432;SDS011;6789;47.678;9.158;2023-04-29T09:32:40;1.83;;;0.80;;
13432;SDS011;6789;47.678;9.158;2023-04-29T09:37:48;2.33;;;0.80;;
13432;SDS011;6789;47.678;9.158;2023-04-29T09:42:44;1.55;;;0.70;;
13432;SDS011;6789;47.678;9.158;2023-04-29T09:48:00;1.52;;;0.70;;
13432;SDS011;6789;47.678;9.158;2023-04-29T09:53:26;1.75;;;0.68;;
13432;SDS011;6789;47.678;9.158;2023-04-29T09:58:35;0.50;;;0.50;;
13432;SDS011;6789;47.678;9.158;2023-04-29T10:03:37;1.92;;;0.80;;
13432;SDS011;6789;47.678;9.158;2023-04-29T10:08:47;3.35;;;0.70;;
13432;SDS011;6789;47.678;9.158;2023-04-29T10:13:41;1.48;;;0.68;;
13432;SDS011;6789;47.678;9.158;2023-04-29T10:18:34;0.88;;;0.70;;
13432;SDS011;6789;47.678;9.158;2023-04-29T10:23:53;0.70;;;0.63;;
13432;SDS011;6789;47.678;9.158;2023-04-29T10:29:02;1.77;;;0.93;;
13432;SDS011;6789;47.678;9.158;2023-04-29T10:34:12;0.60;;;0.60;;
13432;SDS011;6789;47.678;9.158;2023-04-29T10:56:10;1.92;;;1.48;;
13432;SDS011;6789;47.678;9.158;2023-04-29T11:01:25;0.90;;;0.65;;
13432;SDS011;6789;47.678;9.158;2023-04-29T11:06:52;0.85;;;0.52;;
13432;SDS011;6789;47.678;9.158;2023-04-29T11:12:00;1.20;;;0.73;;
13432;SDS011;6789;47.678;9.158;2023-04-29T11:16:56;1.75;;;0.52;;
13432;SDS011;6789;47.678;9.158;2023-04-29T11:22:10;0.57;;;0.57;;
13432;SDS011;6789;47.678;9.158;2023-04-29T11:53:10;1.67;;;0.45;;
13432;SDS011;6789;47.678;9.158;2023-04-29T11:59:03;1.80;;;0.60;;
13432;SDS011;6789;47.678;9.158;2023-04-29T12:04:08;3.55;;;0.60;;
13432;SDS011;6789;47.678;9.158;2023-04-29T12:09:19;1.35;;;0.45;;
13432;SDS011;6789;47.678;9.158;2023-04-29T12:14:28;0.50;;;0.50;;
13432;SDS011;6789;47.678;9.158;2023-04-29T12:19:21;0.57;;;0.40;;
13432;SDS011;6789;47.678;9.158;2023-04-29T12:24:14;0.70;;;0.50;;
13432;SDS011;6789;47.678;9.158;2023-04-29T12:29:09;0.80;;;0.50;;
13432;SDS011;6789;47.678;9.158;2023-04-29T12:34:15;1.08;;;0.60;;
13432;SDS011;6789;47.678;9.158;2023-04-29T12:39:25;0.60;;;0.50;;
13432;SDS011;6789;47.678;9.158;2023-04-29T12:44:34;1.33;;;0.80;;
13432;SDS011;6789;47.678;9.158;2023-04-29T12:49:45;1.25;;;0.55;;
13432;SDS011;6789;47.678;9.158;2023-04-29T12:54:38;0.80;;;0.60;;
13432;SDS011;6789;47.678;9.158;2023-04-29T12:59:34;0.90;;;0.80;;
13432;SDS011;6789;47.678;9.158;2023-04-29T13:04:26;2.85;;;1.00;;
13432;SDS011;6789;47.678;9.158;2023-04-29T13:09:19;4.78;;;3.10;;
13432;SDS011;6789;47.678;9.158;2023-04-29T13:14:25;0.60;;;0.60;;
13432;SDS011;6789;47.678;9.158;2023-04-29T13:19:30;0.90;;;0.80;;
13432;SDS011;6789;47.678;9.158;2023-04-29T13:24:40;0.73;;;0.38;;
13432;SDS011;6789;47.678;9.158;2023-04-29T13:29:47;1.00;;;0.70;;
13432;SDS011;6789;47.678;9.158;2023-04-29T13:34:53;0.88;;;0.70;;
13432;SDS011;6789;47.678;9.158;2023-04-29T13:39:55;0.70;;;0.70;;
13432;SDS011;6789;47.678;9.158;2023-04-29T13:44:47;1.65;;;1.35;;
13432;SDS011;6789;47.678;9.158;2023-04-29T13:50:05;1.42;;;1.00;;
13432;SDS011;6789;47.678;9.158;2023-04-29T13:55:28;0.68;;;0.65;;
13432;SDS011;6789;47.678;9.158;2023-04-29T14:00:34;1.67;;;0.50;;
13432;SDS011;6789;47.678;9.158;2023-04-29T14:05:45;1.00;;;0.70;;
13432;SDS011;6789;47.678;9.158;2023-04-29T14:10:37;0.40;;;0.40;;
13432;SDS011;6789;47.678;9.158;2023-04-29T14:15:29;2.40;;;0.43;;
13432;SDS011;6789;47.678;9.158;2023-04-29T14:20:21;1.30;;;0.63;;
13432;SDS011;6789;47.678;9.158;2023-04-29T14:25:28;0.55;;;0.55;;
13432;SDS011;6789;47.678;9.158;2023-04-29T14:30:27;3.90;;;0.88;;
13432;SDS011;6789;47.678;9.158;2023-04-29T14:40:44;0.20;;;0.20;;
13432;SDS011;6789;47.678;9.158;2023-04-29T14:46:11;0.73;;;0.50;;
13432;SDS011;6789;47.678;9.158;2023-04-29T14:51:18;1.38;;;0.35;;
13432;SDS011;6789;47.678;9.158;2023-04-29T14:56:24;1.00;;;0.70;;
13432;SDS011;6789;47.678;9.158;2023-04-29T15:01:31;0.95;;;0.60;;
13432;SDS011;6789;47.678;9.158;2023-04-29T15:06:39;1.02;;;0.70;;
13432;SDS011;6789;47.678;9.158;2023-04-29T15:11:45;2.05;;;0.90;;
13432;SDS011;6789;47.678;9.158;2023-04-29T15:16:51;0.93;;;0.52;;
13432;SDS011;6789;47.678;9.158;2023-04-29T15:21:57;0.57;;;0.57;;
13432;SDS011;6789;47.678;9.158;2023-04-29T15:27:03;1.27;;;0.45;;
13432;SDS011;6789;47.678;9.158;2023-04-29T15:32:16;2.75;;;0.60;;
13432;SDS011;6789;47.678;9.158;2023-04-29T15:37:12;0.57;;;0.57;;
13432;SDS011;6789;47.678;9.158;2023-04-29T15:42:04;2.20;;;0.70;;
13432;SDS011;6789;47.678;9.158;2023-04-29T15:47:10;0.60;;;0.55;;
13432;SDS011;6789;47.678;9.158;2023-04-29T15:52:42;0.68;;;0.68;;
13432;SDS011;6789;47.678;9.158;2023-04-29T15:58:11;1.15;;;0.82;;
13432;SDS011;6789;47.678;9.158;2023-04-29T16:03:18;1.15;;;0.80;;
13432;SDS011;6789;47.678;9.158;2023-04-29T16:34:09;2.20;;;1.38;;
13432;SDS011;6789;47.678;9.158;2023-04-29T16:39:01;1.33;;;0.85;;
13432;SDS011;6789;47.678;9.158;2023-04-29T16:43:54;1.88;;;0.68;;
13432;SDS011;6789;47.678;9.158;2023-04-29T16:49:01;0.88;;;0.82;;
13432;SDS011;6789;47.678;9.158;2023-04-29T16:54:07;0.98;;;0.90;;
13432;SDS011;6789;47.678;9.158;2023-04-29T16:59:03;1.17;;;1.05;;
13432;SDS011;6789;47.678;9.158;2023-04-29T17:03:55;1.05;;;0.80;;
13432;SDS011;6789;47.678;9.158;2023-04-29T17:08:57;1.70;;;1.10;;
13432;SDS011;6789;47.678;9.158;2023-04-29T17:13:51;1.23;;;0.88;;
13432;SDS011;6789;47.678;9.158;2023-04-29T17:18:46;2.45;;;1.38;;
13432;SDS011;6789;47.678;9.158;2023-04-29T17:23:52;1.10;;;1.00;;
13432;SDS011;6789;47.678;9.158;2023-04-29T17:28:46;2.85;;;0.82;;
13432;SDS011;6789;47.678;9.158;2023-04-29T17:33:51;0.93;;;0.90;;
13432;SDS011;6789;47.678;9.158;2023-04-29T17:39:04;1.65;;;1.00;;
13432;SDS011;6789;47.678;9.158;2023-04-29T17:44:11;1.60;;;1.20;;
13432;SDS011;6789;47.678;9.158;2023-04-29T17:49:03;0.90;;;0.90;;
13432;SDS011;6789;47.678;9.158;2023-04-29T17:53:56;2.85;;;0.93;;
13432;SDS011;6789;47.678;9.158;2023-04-29T17:58:50;1.30;;;1.20;;
13432;SDS011;6789;47.678;9.158;2023-04-29T18:03:57;1.42;;;1.20;;
13432;SDS011;6789;47.678;9.158;2023-04-29T18:09:06;2.22;;;1.30;;
13432;SDS011;6789;47.678;9.158;2023-04-29T18:14:12;1.98;;;1.50;;
13432;SDS011;6789;47.678;9.158;2023-04-29T18:19:18;1.58;;;1.48;;
13432;SDS011;6789;47.678;9.158;2023-04-29T18:24:10;1.75;;;1.50;;
13432;SDS011;6789;47.678;9.158;2023-04-29T18:29:16;2.08;;;1.48;;
13432;SDS011;6789;47.678;9.158;2023-04-29T18:34:22;2.72;;;1.60;;
13432;SDS011;6789;47.678;9.158;2023-04-29T18:39:14;1.70;;;1.60;;
13432;SDS011;6789;47.678;9.158;2023-04-29T18:44:08;2.35;;;1.75;;
13432;SDS011;6789;47.678;9.158;2023-04-29T18:49:16;2.00;;;1.80;;
13432;SDS011;6789;47.678;9.158;2023-04-29T18:54:22;3.67;;;2.00;;
13432;SDS011;6789;47.678;9.158;2023-04-29T18:59:28;2.55;;;1.95;;
13432;SDS011;6789;47.678;9.158;2023-04-29T19:04:34;3.00;;;1.95;;
13432;SDS011;6789;47.678;9.158;2023-04-29T19:09:41;3.35;;;2.00;;
13432;SDS011;6789;47.678;9.158;2023-04-29T19:14:53;6.35;;;2.90;;
13432;SDS011;6789;47.678;9.158;2023-04-29T19:20:00;4.65;;;3.00;;
13432;SDS011;6789;47.678;9.158;2023-04-29T19:25:06;5.00;;;3.05;;
13432;SDS011;6789;47.678;9.158;2023-04-29T19:30:12;4.45;;;2.90;;
13432;SDS011;6789;47.678;9.158;2023-04-29T19:35:19;3.28;;;2.60;;
13432;SDS011;6789;47.678;9.158;2023-04-29T19:40:28;3.70;;;2.85;;
13432;SDS011;6789;47.678;9.158;2023-04-29T19:45:34;5.47;;;3.20;;
13432;SDS011;6789;47.678;9.158;2023-04-29T19:50:30;3.90;;;3.50;;
13432;SDS011;6789;47.678;9.158;2023-04-29T19:55:32;5.65;;;3.72;;
13432;SDS011;6789;47.678;9.158;2023-04-29T20:00:38;4.10;;;3.10;;
13432;SDS011;6789;47.678;9.158;2023-04-29T20:05:31;5.53;;;3.43;;
13432;SDS011;6789;47.678;9.158;2023-04-29T20:10:26;3.97;;;3.53;;
13432;SDS011;6789;47.678;9.158;2023-04-29T20:15:20;4.03;;;3.17;;
13432;SDS011;6789;47.678;9.158;2023-04-29T20:20:17;3.65;;;3.25;;
13432;SDS011;6789;47.678;9.158;2023-04-29T20:25:12;4.18;;;3.55;;
13432;SDS011;6789;47.678;9.158;2023-04-29T20:30:05;4.57;;;3.10;;
13432;SDS011;6789;47.678;9.158;2023-04-29T20:35:13;5.72;;;3.80;;
13432;SDS011;6789;47.678;9.158;2023-04-29T20:40:12;7.50;;;3.97;;
13432;SDS011;6789;47.678;9.158;2023-04-29T20:45:05;4.63;;;3.50;;
13432;SDS011;6789;47.678;9.158;2023-04-29T20:49:59;4.03;;;3.30;;
13432;SDS011;6789;47.678;9.158;2023-04-29T20:54:52;4.17;;;3.73;;
13432;SDS011;6789;47.678;9.158;2023-04-29T20:59:44;4.87;;;3.40;;
13432;SDS011;6789;47.678;9.158;2023-04-29T21:04:51;4.10;;;3.65;;
13432;SDS011;6789;47.678;9.158;2023-04-29T21:09:51;5.87;;;3.33;;
13432;SDS011;6789;47.678;9.158;2023-04-29T21:14:45;4.83;;;3.80;;
13432;SDS011;6789;47.678;9.158;2023-04-29T21:19:37;5.83;;;4.07;;
13432;SDS011;6789;47.678;9.158;2023-04-29T21:24:29;6.67;;;4.00;;
13432;SDS011;6789;47.678;9.158;2023-04-29T21:29:22;4.80;;;3.53;;
13432;SDS011;6789;47.678;9.158;2023-04-29T21:34:15;4.77;;;3.80;;
13432;SDS011;6789;47.678;9.158;2023-04-29T21:39:07;6.68;;;4.40;;
13432;SDS011;6789;47.678;9.158;2023-04-29T21:44:20;7.55;;;4.45;;
13432;SDS011;6789;47.678;9.158;2023-04-29T21:49:16;6.40;;;4.10;;
13432;SDS011;6789;47.678;9.158;2023-04-29T21:54:23;6.25;;;4.15;;
13432;SDS011;6789;47.678;9.158;2023-04-29T21:59:17;5.87;;;4.60;;
13432;SDS011;6789;47.678;9.158;2023-04-29T22:04:09;7.03;;;4.43;;
13432;SDS011;6789;47.678;9.158;2023-04-29T22:09:15;5.57;;;4.40;;
13432;SDS011;6789;47.678;9.158;2023-04-29T22:14:09;5.82;;;4.53;;
13432;SDS011;6789;47.678;9.158;2023-04-29T22:19:03;6.23;;;4.40;;
13432;SDS011;6789;47.678;9.158;2023-04-29T22:23:59;5.63;;;4.70;;
13432;SDS011;6789;47.678;9.158;2023-04-29T22:29:05;5.33;;;4.20;;
13432;SDS011;6789;47.678;9.158;2023-04-29T22:34:08;7.40;;;4.37;;
13432;SDS011;6789;47.678;9.158;2023-04-29T22:39:14;4.63;;;3.77;;
13432;SDS011;6789;47.678;9.158;2023-04-29T22:44:21;6.05;;;4.32;;
13432;SDS011;6789;47.678;9.158;2023-04-29T22:49:21;6.80;;;4.57;;
13432;SDS011;6789;47.678;9.158;2023-04-29T22:54:29;5.03;;;4.27;;
13432;SDS011;6789;47.678;9.158;2023-04-29T22:59:25;5.37;;;4.20;;
13432;SDS011;6789;47.678;9.158;2023-04-29T23:04:18;5.37;;;4.33;;
13432;SDS011;6789;47.678;9.158;2023-04-29T23:09:26;5.33;;;4.23;;
13432;SDS011;6789;47.678;9.158;2023-04-29T23:14:33;5.60;;;4.30;;
13432;SDS011;6789;47.678;9.158;2023-04-29T23:19:27;5.80;;;4.47;;
13432;SDS011;6789;47.678;9.158;2023-04-29T23:24:34;5.57;;;4.60;;
13432;SDS011;6789;47.678;9.158;2023-04-29T23:29:34;8.20;;;4.53;;
13432;SDS011;6789;47.678;9.158;2023-04-29T23:34:32;4.60;;;4.10;;
13432;SDS011;6789;47.678;9.158;2023-04-29T23:39:26;6.73;;;4.47;;
13432;SDS011;6789;47.678;9.158;2023-04-29T23:44:33;5.53;;;4.47;;
13432;SDS011;6789;47.678;9.158;2023-04-29T23:49:26;6.93;;;4.60;;
13432;SDS011;6789;47.678;9.158;2023-04-29T23:54:19;6.50;;;4.40;;
13432;SDS011;6789;47.678;9.158;2023-04-29T23:59:25;7.40;;;4.57;;
